METAR AND TAF INFORMATION
METAR FOR CYVR
CYVR 211500Z 19003KT 20SM FEW220 18/12 A2997 RMK CI1 CI TR SLP150 DENSITY ALT 400FT
CYVR 211400Z 00000KT 20SM FEW220 16/12 A2997 RMK CI1 CI TR SLP151
CYVR 211300Z 00000KT 20SM FEW210 FEW230 12/08 A2996 RMK CC1CI1 CC TR SLP147

TAF CYVR 211440Z 2115/2218 VRB03KT P6SM FEW200
BECMG 2117/2119 28008KT
FM220100 22005KT P6SM SCT160
BECMG 2202/2204 09006KT
FM220700 09010KT P6SM SCT060 BKN100 RMK NXT FCST BY 211800Z

 AIRPORT MAP

 RUNWAY INFORMATION
Runway 08L Runway length 9940 ft Runway width 200 ft
Runway elevation 14 ft Runway displaced threshold 0 ft Runway heading 99
Runway 26R Runway length 9940 ft Runway width 200 ft
Runway elevation 9 ft Runway displaced threshold 0 ft Runway heading 279
Runway 08R Runway length 11500 ft Runway width 200 ft
Runway elevation 9 ft Runway displaced threshold 500 ft Runway heading 100
Runway 26L Runway length 11500 ft Runway width 200 ft
Runway elevation 6 ft Runway displaced threshold 0 ft Runway heading 280
Runway 13 Runway length 7300 ft Runway width 200 ft
Runway elevation 8 ft Runway displaced threshold 0 ft Runway heading 142
Runway 31 Runway length 7300 ft Runway width 200 ft
Runway elevation 7 ft Runway displaced threshold 0 ft Runway heading 322
Runway XX Runway length 3500 ft Runway width 75 ft
Runway elevation 8 ft Runway displaced threshold 0 ft Runway heading 100
Runway 26A Runway length 3500 ft Runway width 75 ft
Runway elevation 8 ft Runway displaced threshold 0 ft Runway heading 280

 AIRPORT FREQUENCIES
Type APP Name APP Frequency 128.6 MHZ
Type ATIS Name ATIS Frequency 124.6 MHZ
Type CLD Name CLNC DEL Frequency 121.4 MHZ
Type DEP Name DEP Frequency 126.125 MHZ
Type GND Name GND Frequency 121.7 MHZ
Type RCO Name PACIFIC RD Frequency 123.15 MHZ
Type TWR Name TWR Frequency 118.7 MHZ
Type TWR Name TWR Frequency 23.66 MHZ

 AIRPORT NEAR NAVIGATION AIDS
Type DME Name Vancouver Frequency 111100 KHZ
Type DME Name Vancouver Frequency 111900 KHZ
Type DME Name Vancouver Frequency 109500 KHZ
Type NDB Name Vancouver Frequency 266 KHZ
Type NDB Name White Rock Frequency 332 KHZ
Type VORTAC Name Vancouver Frequency 115900 KHZ
Type NDB Name Sea Island Frequency 368 KHZ
Type NDB Name Barnes Frequency 356 KHZ

-